createdAt,value
2022-09-11T00:01:15.690Z,1.48
2022-09-11T00:03:44.203Z,1.55
2022-09-11T00:06:13.391Z,2.00
2022-09-11T00:08:41.330Z,1.55
2022-09-11T00:11:14.048Z,1.90
2022-09-11T00:13:41.601Z,1.80
2022-09-11T00:16:19.185Z,2.00
2022-09-11T00:18:47.100Z,1.83
2022-09-11T00:21:14.544Z,1.80
2022-09-11T00:23:41.966Z,1.77
2022-09-11T00:26:09.728Z,1.70
2022-09-11T00:28:37.534Z,1.60
2022-09-11T00:31:06.425Z,1.85
2022-09-11T00:33:34.599Z,1.65
2022-09-11T00:36:04.292Z,1.48
2022-09-11T00:38:32.828Z,1.85
2022-09-11T00:41:01.476Z,1.50
2022-09-11T00:43:30.112Z,1.50
2022-09-11T00:46:03.865Z,1.50
2022-09-11T00:48:34.930Z,1.65
2022-09-11T00:51:03.994Z,1.80
2022-09-11T00:53:34.219Z,1.85
2022-09-11T00:56:02.807Z,1.83
2022-09-11T00:58:33.648Z,1.65
2022-09-11T01:01:02.400Z,1.90
2022-09-11T01:03:31.416Z,1.90
2022-09-11T01:05:59.603Z,1.55
2022-09-11T01:08:27.870Z,1.70
2022-09-11T01:10:55.175Z,2.00
2022-09-11T01:13:22.442Z,1.70
2022-09-11T01:16:03.858Z,1.75
2022-09-11T01:18:34.890Z,1.52
2022-09-11T01:21:16.804Z,1.55
2022-09-11T01:23:44.111Z,2.03
2022-09-11T01:26:14.543Z,1.75
2022-09-11T01:29:05.128Z,2.10
2022-09-11T01:31:36.482Z,2.60
2022-09-11T01:34:10.363Z,2.35
2022-09-11T01:36:41.742Z,2.40
2022-09-11T01:39:09.092Z,2.30
2022-09-11T01:41:49.079Z,2.28
2022-09-11T01:44:19.318Z,2.13
2022-09-11T01:46:50.052Z,1.95
2022-09-11T01:49:19.703Z,2.20
2022-09-11T01:51:48.112Z,2.97
2022-09-11T01:54:17.599Z,3.20
2022-09-11T01:56:51.383Z,2.33
2022-09-11T01:59:22.083Z,2.13
2022-09-11T02:01:52.168Z,2.08
2022-09-11T02:04:24.843Z,1.70
2022-09-11T02:07:04.105Z,2.22
2022-09-11T02:09:34.853Z,2.67
2022-09-11T02:12:04.337Z,2.10
2022-09-11T02:14:42.683Z,2.15
2022-09-11T02:17:19.291Z,2.17
2022-09-11T02:19:46.608Z,2.08
2022-09-11T02:22:13.891Z,2.10
2022-09-11T02:24:41.189Z,2.53
2022-09-11T02:27:10.666Z,2.05
2022-09-11T02:29:39.548Z,2.28
2022-09-11T02:32:07.514Z,1.90
2022-09-11T02:34:36.637Z,2.13
2022-09-11T02:37:09.327Z,2.30
2022-09-11T02:39:57.213Z,2.83
2022-09-11T02:42:24.593Z,2.10
2022-09-11T02:44:54.925Z,2.30
2022-09-11T02:47:37.372Z,2.85
2022-09-11T02:50:24.016Z,2.10
2022-09-11T02:52:57.556Z,3.72
2022-09-11T02:55:40.311Z,3.55
2022-09-11T02:58:07.898Z,4.20
2022-09-11T03:00:35.461Z,4.65
2022-09-11T03:03:04.534Z,6.70
2022-09-11T03:05:32.030Z,6.90
2022-09-11T03:07:59.677Z,7.57
2022-09-11T03:10:27.793Z,7.75
2022-09-11T03:12:55.535Z,7.93
2022-09-11T03:15:23.738Z,7.65
2022-09-11T03:17:51.028Z,8.15
2022-09-11T03:20:19.403Z,9.45
2022-09-11T03:22:46.708Z,8.25
2022-09-11T03:25:15.297Z,9.52
2022-09-11T03:27:43.247Z,9.48
2022-09-11T03:30:10.833Z,10.48
2022-09-11T03:32:38.141Z,11.18
2022-09-11T03:35:05.544Z,10.48
2022-09-11T03:37:32.991Z,11.13
2022-09-11T03:40:03.339Z,12.20
2022-09-11T03:42:31.186Z,13.77
2022-09-11T03:44:58.433Z,13.30
2022-09-11T03:47:25.809Z,14.80
2022-09-11T03:49:54.139Z,13.73
2022-09-11T03:52:24.359Z,13.35
2022-09-11T03:54:51.731Z,14.05
2022-09-11T03:57:19.045Z,15.23
2022-09-11T03:59:46.301Z,16.10
2022-09-11T04:02:13.627Z,15.88
2022-09-11T04:04:41.413Z,16.38
2022-09-11T04:07:08.679Z,15.75
2022-09-11T04:09:36.059Z,16.75
2022-09-11T04:12:03.450Z,16.50
2022-09-11T04:14:30.953Z,17.25
2022-09-11T04:16:58.221Z,17.23
2022-09-11T04:19:25.663Z,17.55
2022-09-11T04:21:52.942Z,17.17
2022-09-11T04:24:20.438Z,17.90
2022-09-11T04:26:47.929Z,19.65
2022-09-11T04:29:18.100Z,17.05
2022-09-11T04:31:45.711Z,19.60
2022-09-11T04:34:13.039Z,18.65
2022-09-11T04:36:40.342Z,17.83
2022-09-11T04:39:07.757Z,18.55
2022-09-11T04:41:35.050Z,18.73
2022-09-11T04:44:05.178Z,19.88
2022-09-11T04:46:34.807Z,18.40
2022-09-11T04:49:04.949Z,19.38
2022-09-11T04:51:33.651Z,19.23
2022-09-11T04:54:01.271Z,20.17
2022-09-11T04:56:32.910Z,19.50
2022-09-11T04:59:01.893Z,20.15
2022-09-11T05:01:30.199Z,19.52
2022-09-11T05:03:58.002Z,21.38
2022-09-11T05:06:25.608Z,20.50
2022-09-11T05:08:52.893Z,19.52
2022-09-11T05:11:21.218Z,19.48
2022-09-11T05:13:48.791Z,20.42
2022-09-11T05:16:17.685Z,19.85
2022-09-11T05:18:51.924Z,19.15
2022-09-11T05:21:19.791Z,19.70
2022-09-11T05:23:51.185Z,19.25
2022-09-11T05:26:19.578Z,20.77
2022-09-11T05:28:46.861Z,21.88
2022-09-11T05:31:16.637Z,21.20
2022-09-11T05:33:44.694Z,20.35
2022-09-11T05:36:12.773Z,21.13
2022-09-11T05:38:40.781Z,21.77
2022-09-11T05:41:09.018Z,21.92
2022-09-11T05:43:37.257Z,22.35
2022-09-11T05:46:05.171Z,21.30
2022-09-11T05:48:32.929Z,21.30
2022-09-11T05:51:01.600Z,19.63
2022-09-11T05:53:35.328Z,20.77
2022-09-11T05:56:14.477Z,21.40
2022-09-11T05:58:41.873Z,22.38
2022-09-11T06:01:11.365Z,21.95
2022-09-11T06:03:39.046Z,21.80
2022-09-11T06:06:10.771Z,23.63
2022-09-11T06:08:39.096Z,22.88
2022-09-11T06:11:08.327Z,24.27
2022-09-11T06:13:39.573Z,27.15
2022-09-11T06:16:20.642Z,25.85
2022-09-11T06:18:49.727Z,25.20
2022-09-11T06:21:20.522Z,24.90
2022-09-11T06:23:48.925Z,27.50
2022-09-11T06:26:17.639Z,24.63
2022-09-11T06:28:45.212Z,26.15
2022-09-11T06:31:13.610Z,27.77
2022-09-11T06:33:41.515Z,25.63
2022-09-11T06:36:11.085Z,26.58
2022-09-11T06:38:38.625Z,27.88
2022-09-11T06:41:07.958Z,25.60
2022-09-11T06:43:35.286Z,28.08
2022-09-11T06:46:06.422Z,27.65
2022-09-11T06:48:34.026Z,26.92
2022-09-11T06:51:07.986Z,26.77
2022-09-11T06:53:35.707Z,26.65
2022-09-11T06:56:04.282Z,27.38
2022-09-11T06:58:32.128Z,26.05
2022-09-11T07:01:03.727Z,26.80
2022-09-11T07:03:31.241Z,27.13
2022-09-11T07:05:58.768Z,27.95
2022-09-11T07:08:26.231Z,25.92
2022-09-11T07:10:53.610Z,25.15
2022-09-11T07:13:21.096Z,25.65
2022-09-11T07:15:49.587Z,26.00
2022-09-11T07:18:18.671Z,27.15
2022-09-11T07:20:46.031Z,26.38
2022-09-11T07:23:13.272Z,23.75
2022-09-11T07:25:40.819Z,23.95
2022-09-11T07:28:08.126Z,24.48
2022-09-11T07:30:35.536Z,26.65
2022-09-11T07:33:03.034Z,22.20
2022-09-11T07:35:31.359Z,23.90
2022-09-11T07:37:59.303Z,23.83
2022-09-11T07:40:26.677Z,22.58
2022-09-11T07:42:54.289Z,25.42
2022-09-11T07:45:22.906Z,23.42
2022-09-11T07:47:50.369Z,24.38
2022-09-11T07:50:18.374Z,23.08
2022-09-11T07:52:45.709Z,23.45
2022-09-11T07:55:13.463Z,25.80
2022-09-11T07:57:40.710Z,23.70
2022-09-11T08:00:08.389Z,21.08
2022-09-11T08:02:37.141Z,23.65
2022-09-11T08:05:04.507Z,21.48
2022-09-11T08:07:31.791Z,20.80
2022-09-11T08:10:23.403Z,19.75
2022-09-11T08:12:47.793Z,17.65
2022-09-11T08:15:15.056Z,19.40
2022-09-11T08:17:42.305Z,115.90
2022-09-11T08:20:09.876Z,91.88
2022-09-11T08:22:37.350Z,20.13
2022-09-11T08:25:04.864Z,17.77
2022-09-11T08:27:32.348Z,27.73
2022-09-11T08:29:59.763Z,22.15
2022-09-11T08:32:27.063Z,28.75
2022-09-11T08:34:54.545Z,16.15
2022-09-11T08:37:22.421Z,20.65
2022-09-11T08:39:49.851Z,12.43
2022-09-11T08:42:18.387Z,13.93
2022-09-11T08:44:50.884Z,11.50
2022-09-11T08:47:24.419Z,12.90
2022-09-11T08:50:18.181Z,11.82
2022-09-11T08:52:45.696Z,11.65
2022-09-11T08:55:14.347Z,9.73
2022-09-11T08:57:44.752Z,13.55
2022-09-11T09:00:22.114Z,9.98
2022-09-11T09:02:56.328Z,10.45
2022-09-11T09:05:32.753Z,12.17
2022-09-11T09:08:12.025Z,9.93
2022-09-11T09:10:53.580Z,9.43
2022-09-11T09:13:21.100Z,9.18
2022-09-11T09:16:03.803Z,9.45
2022-09-11T09:18:35.723Z,50.65
2022-09-11T09:21:14.948Z,11.10
2022-09-11T09:23:53.991Z,10.05
2022-09-11T09:26:21.421Z,8.65
2022-09-11T09:28:50.998Z,8.60
2022-09-11T09:31:21.090Z,11.85
2022-09-11T09:34:09.949Z,8.05
2022-09-11T09:36:39.834Z,8.32
2022-09-11T09:39:12.037Z,8.00
2022-09-11T09:42:12.043Z,9.77
2022-09-11T09:44:48.779Z,8.35
2022-09-11T09:47:16.169Z,11.20
2022-09-11T09:49:44.095Z,9.15
2022-09-11T09:52:18.897Z,8.15
2022-09-11T09:54:52.266Z,7.82
2022-09-11T09:57:19.958Z,12.60
2022-09-11T09:59:58.295Z,7.32
2022-09-11T10:02:45.252Z,5.32
2022-09-11T10:05:17.408Z,4.38
2022-09-11T10:08:04.204Z,6.57
2022-09-11T10:10:33.231Z,4.22
2022-09-11T10:13:18.513Z,4.80
2022-09-11T10:15:49.142Z,5.30
2022-09-11T10:18:24.077Z,3.13
2022-09-11T10:20:51.968Z,4.60
2022-09-11T10:23:24.294Z,4.95
2022-09-11T10:25:52.180Z,4.15
2022-09-11T10:28:21.222Z,4.57
2022-09-11T10:30:54.385Z,4.15
2022-09-11T10:33:26.457Z,3.95
2022-09-11T10:35:58.440Z,4.47
2022-09-11T10:38:33.198Z,3.25
2022-09-11T10:41:16.207Z,4.18
2022-09-11T10:44:02.450Z,5.28
2022-09-11T10:46:40.734Z,4.38
2022-09-11T10:49:24.162Z,8.40
2022-09-11T10:52:10.083Z,6.20
2022-09-11T10:54:47.046Z,5.18
2022-09-11T10:57:14.968Z,7.80
2022-09-11T10:59:42.239Z,5.22
2022-09-11T11:02:21.293Z,6.15
2022-09-11T11:04:48.925Z,6.10
2022-09-11T11:07:40.514Z,5.15
2022-09-11T11:10:17.926Z,4.20
2022-09-11T11:13:05.325Z,5.57
2022-09-11T11:15:58.505Z,6.78
2022-09-11T11:18:47.635Z,4.88
2022-09-11T11:21:22.158Z,5.72
2022-09-11T11:23:52.710Z,5.82
2022-09-11T11:26:26.070Z,6.20
2022-09-11T11:28:59.179Z,5.32
2022-09-11T11:31:41.347Z,4.70
2022-09-11T11:34:30.644Z,8.70
2022-09-11T11:37:17.021Z,6.68
2022-09-11T11:39:57.258Z,5.28
2022-09-11T11:42:26.013Z,5.10
2022-09-11T11:44:54.193Z,5.68
2022-09-11T11:47:25.455Z,5.35
2022-09-11T11:50:19.205Z,5.88
2022-09-11T11:52:54.542Z,5.65
2022-09-11T11:55:27.210Z,5.93
2022-09-11T11:58:04.681Z,6.45
2022-09-11T12:00:35.767Z,6.32
2022-09-11T12:03:10.191Z,7.07
2022-09-11T12:05:39.403Z,9.13
2022-09-11T12:08:11.929Z,7.38
2022-09-11T12:10:40.778Z,6.72
2022-09-11T12:13:13.332Z,7.18
2022-09-11T12:15:40.691Z,7.75
2022-09-11T12:18:20.367Z,6.22
2022-09-11T12:20:47.773Z,7.30
2022-09-11T12:23:35.127Z,7.57
2022-09-11T12:26:17.355Z,9.27
2022-09-11T12:28:45.220Z,8.15
2022-09-11T12:31:13.718Z,7.95
2022-09-11T12:33:54.588Z,8.13
2022-09-11T12:36:31.407Z,7.45
2022-09-11T12:39:19.355Z,9.05
2022-09-11T12:41:50.043Z,7.40
2022-09-11T12:44:36.577Z,8.60
2022-09-11T12:47:03.922Z,8.73
2022-09-11T12:49:34.982Z,10.38
2022-09-11T12:52:02.311Z,7.88
2022-09-11T12:54:32.036Z,7.18
2022-09-11T12:57:01.430Z,6.80
2022-09-11T12:59:39.942Z,7.10
2022-09-11T13:02:26.483Z,6.75
2022-09-11T13:04:54.361Z,8.70
2022-09-11T13:07:33.687Z,6.53
2022-09-11T13:10:03.916Z,8.20
2022-09-11T13:12:31.197Z,8.02
2022-09-11T13:15:01.632Z,8.00
2022-09-11T13:17:30.775Z,12.65
2022-09-11T13:20:10.219Z,10.38
2022-09-11T13:22:38.686Z,7.35
2022-09-11T13:25:07.879Z,10.10
2022-09-11T13:27:37.691Z,9.82
2022-09-11T13:30:06.688Z,10.63
2022-09-11T13:32:34.551Z,10.45
2022-09-11T13:35:06.043Z,11.60
2022-09-11T13:37:38.034Z,11.65
2022-09-11T13:40:06.379Z,8.63
2022-09-11T13:42:34.014Z,8.18
2022-09-11T13:45:02.078Z,10.82
2022-09-11T13:47:31.664Z,13.75
2022-09-11T13:50:02.556Z,9.20
2022-09-11T13:52:31.354Z,9.60
2022-09-11T13:55:00.710Z,9.70
2022-09-11T13:57:29.586Z,8.45
2022-09-11T13:59:57.932Z,7.10
2022-09-11T14:02:47.895Z,8.25
2022-09-11T14:05:17.819Z,7.18
2022-09-11T14:07:56.424Z,6.78
2022-09-11T14:10:23.755Z,8.65
2022-09-11T14:13:04.312Z,9.43
2022-09-11T14:15:36.280Z,8.30
2022-09-11T14:18:04.679Z,8.98
2022-09-11T14:20:32.449Z,9.23
2022-09-11T14:23:03.132Z,8.63
2022-09-11T14:25:30.982Z,8.98
2022-09-11T14:27:58.313Z,9.30
2022-09-11T14:30:28.307Z,9.10
2022-09-11T14:33:07.871Z,9.40
2022-09-11T14:35:36.855Z,10.07
2022-09-11T14:38:04.450Z,9.07
2022-09-11T14:40:31.761Z,8.35
2022-09-11T14:42:59.491Z,7.95
2022-09-11T14:45:26.850Z,8.85
2022-09-11T14:47:54.255Z,8.85
2022-09-11T14:50:21.918Z,8.95
2022-09-11T14:52:49.575Z,7.95
2022-09-11T14:55:17.870Z,7.28
2022-09-11T14:57:48.443Z,7.55
2022-09-11T15:00:16.880Z,7.45
2022-09-11T15:02:44.120Z,5.63
2022-09-11T15:05:23.054Z,6.78
2022-09-11T15:07:50.388Z,5.95
2022-09-11T15:10:18.822Z,7.20
2022-09-11T15:12:46.125Z,7.82
2022-09-11T15:15:13.389Z,7.70
2022-09-11T15:17:40.734Z,8.10
2022-09-11T15:20:10.246Z,9.15
2022-09-11T15:22:38.545Z,7.85
2022-09-11T15:25:06.433Z,8.45
2022-09-11T15:27:33.780Z,7.43
2022-09-11T15:30:01.349Z,8.38
2022-09-11T15:32:31.152Z,7.90
2022-09-11T15:34:58.730Z,7.35
2022-09-11T15:37:26.421Z,8.13
2022-09-11T15:39:54.105Z,8.30
2022-09-11T15:42:21.497Z,6.95
2022-09-11T15:44:50.966Z,8.00
2022-09-11T15:47:18.410Z,8.23
2022-09-11T15:49:47.756Z,8.18
2022-09-11T15:52:15.100Z,7.63
2022-09-11T15:54:43.024Z,7.78
2022-09-11T15:57:10.400Z,7.47
2022-09-11T15:59:37.717Z,7.38
2022-09-11T16:02:05.077Z,7.45
2022-09-11T16:04:33.587Z,6.72
2022-09-11T16:07:01.002Z,6.20
2022-09-11T16:09:29.825Z,5.72
2022-09-11T16:11:57.455Z,6.22
2022-09-11T16:14:27.589Z,5.95
2022-09-11T16:16:56.160Z,5.97
2022-09-11T16:19:28.073Z,5.70
2022-09-11T16:21:56.722Z,5.60
2022-09-11T16:24:28.105Z,5.88
2022-09-11T16:26:56.164Z,5.65
2022-09-11T16:30:09.055Z,5.57
2022-09-11T16:32:28.742Z,5.80
2022-09-11T16:34:57.970Z,5.95
2022-09-11T16:37:26.058Z,5.00
2022-09-11T16:39:53.557Z,5.88
2022-09-11T16:42:21.949Z,5.90
2022-09-11T16:44:49.773Z,5.50
2022-09-11T16:47:17.448Z,5.32
2022-09-11T16:52:34.690Z,5.50
2022-09-11T16:55:04.105Z,5.00
2022-09-11T16:57:31.628Z,5.10
2022-09-11T16:59:59.026Z,5.15
2022-09-11T17:02:26.733Z,5.57
2022-09-11T17:04:54.047Z,5.10
2022-09-11T17:07:21.475Z,5.32
2022-09-11T17:09:48.870Z,5.88
2022-09-11T17:12:18.264Z,5.40
2022-09-11T17:14:45.795Z,5.65
2022-09-11T17:17:13.458Z,5.25
2022-09-11T17:19:40.831Z,4.95
2022-09-11T17:22:08.801Z,5.90
2022-09-11T17:24:36.478Z,6.07
2022-09-11T17:27:03.768Z,5.43
2022-09-11T17:29:31.052Z,5.88
2022-09-11T17:32:23.669Z,5.60
2022-09-11T17:34:47.165Z,5.47
2022-09-11T17:37:15.240Z,5.28
2022-09-11T17:39:42.804Z,5.90
2022-09-11T17:42:13.265Z,5.55
2022-09-11T17:44:43.581Z,5.60
2022-09-11T17:47:10.961Z,5.63
2022-09-11T17:49:38.343Z,5.78
2022-09-11T17:52:05.734Z,5.93
2022-09-11T17:54:33.040Z,5.28
2022-09-11T17:57:00.575Z,5.75
2022-09-11T17:59:28.005Z,5.82
2022-09-11T18:01:55.362Z,6.53
2022-09-11T18:04:22.688Z,5.38
2022-09-11T18:06:51.244Z,5.22
2022-09-11T18:09:20.000Z,5.35
2022-09-11T18:11:48.468Z,5.28
2022-09-11T18:14:16.552Z,5.90
2022-09-11T18:16:45.234Z,5.68
2022-09-11T18:19:12.951Z,6.00
2022-09-11T18:21:40.699Z,5.85
2022-09-11T18:24:09.876Z,6.00
2022-09-11T18:26:40.181Z,6.25
2022-09-11T18:29:12.765Z,5.68
2022-09-11T18:31:41.733Z,5.45
2022-09-11T18:34:11.048Z,5.65
2022-09-11T18:36:38.331Z,5.97
2022-09-11T18:39:06.391Z,6.03
2022-09-11T18:41:35.229Z,5.57
2022-09-11T18:44:04.359Z,6.28
2022-09-11T18:46:32.144Z,5.70
2022-09-11T18:49:00.198Z,6.03
2022-09-11T18:51:28.005Z,6.00
2022-09-11T18:53:55.509Z,6.03
2022-09-11T18:56:24.039Z,5.28
2022-09-11T18:58:52.504Z,5.65
2022-09-11T19:01:22.822Z,5.88
2022-09-11T19:03:52.053Z,4.82
2022-09-11T19:06:20.773Z,5.32
2022-09-11T19:08:48.422Z,5.82
2022-09-11T19:11:17.080Z,5.97
2022-09-11T19:13:45.432Z,5.78
2022-09-11T19:16:13.467Z,5.65
2022-09-11T19:18:40.747Z,5.40
2022-09-11T19:21:10.439Z,5.55
2022-09-11T19:23:39.276Z,5.72
2022-09-11T19:26:07.737Z,5.03
2022-09-11T19:28:35.745Z,6.30
2022-09-11T19:31:03.791Z,5.07
2022-09-11T19:33:31.757Z,5.75
2022-09-11T19:36:04.171Z,5.65
2022-09-11T19:38:32.677Z,5.53
2022-09-11T19:41:01.286Z,5.90
2022-09-11T19:43:32.178Z,6.07
2022-09-11T19:46:09.626Z,6.63
2022-09-11T19:49:02.442Z,6.13
2022-09-11T19:51:41.202Z,5.78
2022-09-11T19:54:09.111Z,5.40
2022-09-11T19:56:37.423Z,5.32
2022-09-11T19:59:05.482Z,5.50
2022-09-11T20:01:33.115Z,5.53
2022-09-11T20:04:00.950Z,5.68
2022-09-11T20:06:32.410Z,4.97
2022-09-11T20:09:27.285Z,6.45
2022-09-11T20:11:47.850Z,5.72
2022-09-11T20:14:15.194Z,6.40
2022-09-11T20:16:42.701Z,5.47
2022-09-11T20:19:10.542Z,5.75
2022-09-11T20:21:38.087Z,6.10
2022-09-11T20:24:06.507Z,5.88
2022-09-11T20:26:34.520Z,5.68
2022-09-11T20:29:03.149Z,5.93
2022-09-11T20:31:31.834Z,5.50
2022-09-11T20:34:00.701Z,5.32
2022-09-11T20:36:30.425Z,5.95
2022-09-11T20:39:00.095Z,5.40
2022-09-11T20:41:29.894Z,5.28
2022-09-11T20:43:58.183Z,5.75
2022-09-11T20:46:25.768Z,5.50
2022-09-11T20:48:53.407Z,5.82
2022-09-11T20:51:22.854Z,5.05
2022-09-11T20:53:50.468Z,4.93
2022-09-11T20:56:20.645Z,5.75
2022-09-11T20:58:47.899Z,5.63
2022-09-11T21:01:18.086Z,5.50
2022-09-11T21:03:46.844Z,6.70
2022-09-11T21:06:14.498Z,5.85
2022-09-11T21:08:42.367Z,5.82
2022-09-11T21:11:10.179Z,6.40
2022-09-11T21:13:38.360Z,5.28
2022-09-11T21:16:06.973Z,5.47
2022-09-11T21:18:34.645Z,5.68
2022-09-11T21:21:02.404Z,5.22
2022-09-11T21:23:30.149Z,5.40
2022-09-11T21:25:57.453Z,6.13
2022-09-11T21:28:24.771Z,5.50
2022-09-11T21:30:52.025Z,5.90
2022-09-11T21:33:19.767Z,5.32
2022-09-11T21:35:52.521Z,5.07
2022-09-11T21:38:21.130Z,5.47
2022-09-11T21:40:48.725Z,5.03
2022-09-11T21:43:15.974Z,4.90
2022-09-11T21:45:43.327Z,4.97
2022-09-11T21:48:10.622Z,6.50
2022-09-11T21:50:38.194Z,5.47
2022-09-11T21:53:06.418Z,5.88
2022-09-11T21:55:43.737Z,5.60
2022-09-11T21:58:15.644Z,5.45
2022-09-11T22:00:43.554Z,5.40
2022-09-11T22:03:14.354Z,5.40
2022-09-11T22:05:45.412Z,5.50
2022-09-11T22:08:14.364Z,5.82
2022-09-11T22:11:02.986Z,5.00
2022-09-11T22:13:30.933Z,5.70
2022-09-11T22:15:58.368Z,5.50
2022-09-11T22:18:25.880Z,5.20
2022-09-11T22:20:53.720Z,5.68
2022-09-11T22:23:22.017Z,5.90
2022-09-11T22:25:49.699Z,5.68
2022-09-11T22:28:17.142Z,6.60
2022-09-11T22:30:44.973Z,5.82
2022-09-11T22:33:12.235Z,5.50
2022-09-11T22:35:39.611Z,5.63
2022-09-11T22:38:06.845Z,5.90
2022-09-11T22:40:34.302Z,6.25
2022-09-11T22:43:01.727Z,6.30
2022-09-11T22:45:29.365Z,7.57
2022-09-11T22:47:56.696Z,6.50
2022-09-11T22:50:24.305Z,6.05
2022-09-11T22:52:51.597Z,6.68
2022-09-11T22:55:21.850Z,6.30
2022-09-11T22:57:49.215Z,6.07
2022-09-11T23:00:19.190Z,6.50
2022-09-11T23:02:46.751Z,5.78
2022-09-11T23:05:32.713Z,5.80
2022-09-11T23:07:59.984Z,6.07
2022-09-11T23:10:27.405Z,5.32
2022-09-11T23:12:55.093Z,5.50
2022-09-11T23:15:22.430Z,5.65
2022-09-11T23:17:49.718Z,5.38
2022-09-11T23:20:18.421Z,5.07
2022-09-11T23:22:45.771Z,4.90
2022-09-11T23:25:13.933Z,5.80
2022-09-11T23:27:41.366Z,4.75
2022-09-11T23:30:08.887Z,4.10
2022-09-11T23:32:41.160Z,5.40
2022-09-11T23:35:09.339Z,5.25
2022-09-11T23:37:37.111Z,5.85
2022-09-11T23:40:05.166Z,4.45
2022-09-11T23:42:32.804Z,4.80
2022-09-11T23:45:00.200Z,5.72
2022-09-11T23:47:27.509Z,5.28
2022-09-11T23:49:54.788Z,4.85
2022-09-11T23:52:22.217Z,5.05
2022-09-11T23:54:49.703Z,4.95
2022-09-11T23:57:17.172Z,4.53
2022-09-11T23:59:44.524Z,4.40
